sensor_id;sensor_type;location;lat;lon;timestamp;temperature;humidity
21682;DHT22;11002;48.256;10.084;2024-03-17T00:01:12;8.30;74.30
21682;DHT22;11002;48.256;10.084;2024-03-17T00:03:39;8.20;74.40
21682;DHT22;11002;48.256;10.084;2024-03-17T00:06:05;8.10;74.60
21682;DHT22;11002;48.256;10.084;2024-03-17T00:08:35;8.00;74.80
21682;DHT22;11002;48.256;10.084;2024-03-17T00:11:02;8.00;74.80
21682;DHT22;11002;48.256;10.084;2024-03-17T00:13:29;7.90;74.70
21682;DHT22;11002;48.256;10.084;2024-03-17T00:15:55;7.80;74.70
21682;DHT22;11002;48.256;10.084;2024-03-17T00:18:23;7.70;74.80
21682;DHT22;11002;48.256;10.084;2024-03-17T00:20:51;7.60;75.10
21682;DHT22;11002;48.256;10.084;2024-03-17T00:23:19;7.50;75.10
21682;DHT22;11002;48.256;10.084;2024-03-17T00:25:47;7.30;75.50
21682;DHT22;11002;48.256;10.084;2024-03-17T00:28:16;7.20;76.00
21682;DHT22;11002;48.256;10.084;2024-03-17T00:30:43;7.10;76.70
21682;DHT22;11002;48.256;10.084;2024-03-17T00:33:12;7.10;76.60
21682;DHT22;11002;48.256;10.084;2024-03-17T00:35:38;7.00;77.70
21682;DHT22;11002;48.256;10.084;2024-03-17T00:38:05;7.00;78.90
21682;DHT22;11002;48.256;10.084;2024-03-17T00:40:36;7.00;79.20
21682;DHT22;11002;48.256;10.084;2024-03-17T00:43:05;7.00;78.90
21682;DHT22;11002;48.256;10.084;2024-03-17T00:45:31;7.00;79.10
21682;DHT22;11002;48.256;10.084;2024-03-17T00:47:59;7.00;79.80
21682;DHT22;11002;48.256;10.084;2024-03-17T00:50:25;6.90;80.10
21682;DHT22;11002;48.256;10.084;2024-03-17T00:52:52;6.90;80.90
21682;DHT22;11002;48.256;10.084;2024-03-17T00:55:18;6.90;81.90
21682;DHT22;11002;48.256;10.084;2024-03-17T00:57:45;6.90;82.60
21682;DHT22;11002;48.256;10.084;2024-03-17T01:00:14;6.90;83.00
21682;DHT22;11002;48.256;10.084;2024-03-17T01:02:41;6.90;83.00
21682;DHT22;11002;48.256;10.084;2024-03-17T01:05:08;6.90;83.60
21682;DHT22;11002;48.256;10.084;2024-03-17T01:07:35;6.90;83.70
21682;DHT22;11002;48.256;10.084;2024-03-17T01:10:01;6.90;83.60
21682;DHT22;11002;48.256;10.084;2024-03-17T01:12:29;7.00;84.80
21682;DHT22;11002;48.256;10.084;2024-03-17T01:14:55;7.00;86.50
21682;DHT22;11002;48.256;10.084;2024-03-17T01:17:23;7.00;87.20
21682;DHT22;11002;48.256;10.084;2024-03-17T01:19:51;7.00;88.60
21682;DHT22;11002;48.256;10.084;2024-03-17T01:22:17;7.00;89.40
21682;DHT22;11002;48.256;10.084;2024-03-17T01:24:44;7.00;89.40
21682;DHT22;11002;48.256;10.084;2024-03-17T01:27:12;7.00;89.40
21682;DHT22;11002;48.256;10.084;2024-03-17T01:29:42;7.00;88.90
21682;DHT22;11002;48.256;10.084;2024-03-17T01:32:09;7.00;88.40
21682;DHT22;11002;48.256;10.084;2024-03-17T01:34:38;6.90;88.50
21682;DHT22;11002;48.256;10.084;2024-03-17T01:37:04;6.90;89.20
21682;DHT22;11002;48.256;10.084;2024-03-17T01:39:31;6.80;89.20
21682;DHT22;11002;48.256;10.084;2024-03-17T01:41:58;6.70;89.10
21682;DHT22;11002;48.256;10.084;2024-03-17T01:44:27;6.60;89.00
21682;DHT22;11002;48.256;10.084;2024-03-17T01:46:54;6.60;89.00
21682;DHT22;11002;48.256;10.084;2024-03-17T01:49:22;6.50;88.90
21682;DHT22;11002;48.256;10.084;2024-03-17T01:51:50;6.40;88.90
21682;DHT22;11002;48.256;10.084;2024-03-17T01:54:18;6.40;90.00
21682;DHT22;11002;48.256;10.084;2024-03-17T01:56:45;6.30;90.20
21682;DHT22;11002;48.256;10.084;2024-03-17T01:59:12;6.20;90.80
21682;DHT22;11002;48.256;10.084;2024-03-17T02:01:40;6.20;91.50
21682;DHT22;11002;48.256;10.084;2024-03-17T02:04:08;6.10;92.20
21682;DHT22;11002;48.256;10.084;2024-03-17T02:06:34;6.10;92.20
21682;DHT22;11002;48.256;10.084;2024-03-17T02:09:03;6.10;92.10
21682;DHT22;11002;48.256;10.084;2024-03-17T02:11:30;6.00;92.10
21682;DHT22;11002;48.256;10.084;2024-03-17T02:13:58;5.90;92.40
21682;DHT22;11002;48.256;10.084;2024-03-17T02:16:25;5.90;93.30
21682;DHT22;11002;48.256;10.084;2024-03-17T02:18:54;5.90;94.50
21682;DHT22;11002;48.256;10.084;2024-03-17T02:21:21;5.90;95.80
21682;DHT22;11002;48.256;10.084;2024-03-17T02:23:50;5.90;97.50
21682;DHT22;11002;48.256;10.084;2024-03-17T02:26:17;5.90;97.70
21682;DHT22;11002;48.256;10.084;2024-03-17T02:28:45;6.00;98.70
21682;DHT22;11002;48.256;10.084;2024-03-17T02:31:13;6.00;99.30
21682;DHT22;11002;48.256;10.084;2024-03-17T02:33:40;6.10;99.60
21682;DHT22;11002;48.256;10.084;2024-03-17T02:36:07;6.10;99.90
21682;DHT22;11002;48.256;10.084;2024-03-17T02:38:35;6.10;99.90
21682;DHT22;11002;48.256;10.084;2024-03-17T02:41:21;6.20;99.90
21682;DHT22;11002;48.256;10.084;2024-03-17T02:43:49;6.20;99.90
21682;DHT22;11002;48.256;10.084;2024-03-17T02:46:17;6.30;99.90
21682;DHT22;11002;48.256;10.084;2024-03-17T02:48:46;6.30;99.90
21682;DHT22;11002;48.256;10.084;2024-03-17T02:51:15;6.30;99.90
21682;DHT22;11002;48.256;10.084;2024-03-17T02:53:42;6.30;99.90
21682;DHT22;11002;48.256;10.084;2024-03-17T02:56:11;6.30;99.90
21682;DHT22;11002;48.256;10.084;2024-03-17T02:58:40;6.40;99.90
21682;DHT22;11002;48.256;10.084;2024-03-17T03:01:07;6.30;99.90
21682;DHT22;11002;48.256;10.084;2024-03-17T03:03:35;6.30;99.90
21682;DHT22;11002;48.256;10.084;2024-03-17T03:06:03;6.30;99.90
21682;DHT22;11002;48.256;10.084;2024-03-17T03:08:35;6.30;99.90
21682;DHT22;11002;48.256;10.084;2024-03-17T03:11:04;6.20;99.90
21682;DHT22;11002;48.256;10.084;2024-03-17T03:13:32;6.20;99.90
21682;DHT22;11002;48.256;10.084;2024-03-17T03:16:00;6.20;99.90
21682;DHT22;11002;48.256;10.084;2024-03-17T03:18:27;6.40;99.90
21682;DHT22;11002;48.256;10.084;2024-03-17T03:20:55;6.20;99.90
21682;DHT22;11002;48.256;10.084;2024-03-17T03:23:22;6.20;99.90
21682;DHT22;11002;48.256;10.084;2024-03-17T03:25:55;6.20;99.90
21682;DHT22;11002;48.256;10.084;2024-03-17T03:28:23;6.20;99.90
21682;DHT22;11002;48.256;10.084;2024-03-17T03:30:50;6.20;99.90
21682;DHT22;11002;48.256;10.084;2024-03-17T03:33:20;6.10;99.80
21682;DHT22;11002;48.256;10.084;2024-03-17T03:35:47;6.10;99.70
21682;DHT22;11002;48.256;10.084;2024-03-17T03:38:15;6.10;99.60
21682;DHT22;11002;48.256;10.084;2024-03-17T03:40:42;6.00;99.90
21682;DHT22;11002;48.256;10.084;2024-03-17T03:43:10;6.10;99.90
21682;DHT22;11002;48.256;10.084;2024-03-17T03:45:39;6.10;99.90
21682;DHT22;11002;48.256;10.084;2024-03-17T03:48:07;6.10;99.90
21682;DHT22;11002;48.256;10.084;2024-03-17T03:50:38;6.20;99.90
21682;DHT22;11002;48.256;10.084;2024-03-17T03:53:05;6.20;99.90
21682;DHT22;11002;48.256;10.084;2024-03-17T03:55:32;6.20;99.90
21682;DHT22;11002;48.256;10.084;2024-03-17T03:58:00;6.30;99.90
21682;DHT22;11002;48.256;10.084;2024-03-17T04:00:29;6.30;99.90
21682;DHT22;11002;48.256;10.084;2024-03-17T04:02:58;6.30;99.90
21682;DHT22;11002;48.256;10.084;2024-03-17T04:05:25;6.30;99.80
21682;DHT22;11002;48.256;10.084;2024-03-17T04:07:54;6.40;99.80
21682;DHT22;11002;48.256;10.084;2024-03-17T04:10:21;6.30;99.50
21682;DHT22;11002;48.256;10.084;2024-03-17T04:12:50;6.30;99.40
21682;DHT22;11002;48.256;10.084;2024-03-17T04:15:17;6.30;99.20
21682;DHT22;11002;48.256;10.084;2024-03-17T04:17:45;6.30;98.60
21682;DHT22;11002;48.256;10.084;2024-03-17T04:20:13;6.20;98.20
21682;DHT22;11002;48.256;10.084;2024-03-17T04:22:40;6.20;98.40
21682;DHT22;11002;48.256;10.084;2024-03-17T04:25:11;6.20;98.60
21682;DHT22;11002;48.256;10.084;2024-03-17T04:27:40;6.20;98.60
21682;DHT22;11002;48.256;10.084;2024-03-17T04:30:07;6.20;98.70
21682;DHT22;11002;48.256;10.084;2024-03-17T04:32:37;6.20;98.70
21682;DHT22;11002;48.256;10.084;2024-03-17T04:35:05;6.20;98.70
21682;DHT22;11002;48.256;10.084;2024-03-17T04:37:32;6.20;98.80
21682;DHT22;11002;48.256;10.084;2024-03-17T04:40:06;6.20;99.00
21682;DHT22;11002;48.256;10.084;2024-03-17T04:42:36;6.30;99.20
21682;DHT22;11002;48.256;10.084;2024-03-17T04:45:06;6.30;99.20
21682;DHT22;11002;48.256;10.084;2024-03-17T04:47:36;6.30;99.40
21682;DHT22;11002;48.256;10.084;2024-03-17T04:50:04;6.30;99.60
21682;DHT22;11002;48.256;10.084;2024-03-17T04:52:31;6.30;99.70
21682;DHT22;11002;48.256;10.084;2024-03-17T04:54:59;6.30;99.70
21682;DHT22;11002;48.256;10.084;2024-03-17T04:57:27;6.40;99.90
21682;DHT22;11002;48.256;10.084;2024-03-17T04:59:56;6.30;99.90
21682;DHT22;11002;48.256;10.084;2024-03-17T05:02:23;6.20;99.90
21682;DHT22;11002;48.256;10.084;2024-03-17T05:04:51;6.40;99.90
21682;DHT22;11002;48.256;10.084;2024-03-17T05:07:19;6.40;99.90
21682;DHT22;11002;48.256;10.084;2024-03-17T05:09:46;6.40;99.90
21682;DHT22;11002;48.256;10.084;2024-03-17T05:12:13;6.40;99.90
21682;DHT22;11002;48.256;10.084;2024-03-17T05:14:40;6.50;99.90
21682;DHT22;11002;48.256;10.084;2024-03-17T05:17:09;6.50;99.90
21682;DHT22;11002;48.256;10.084;2024-03-17T05:19:36;6.50;99.90
21682;DHT22;11002;48.256;10.084;2024-03-17T05:22:04;6.60;99.90
21682;DHT22;11002;48.256;10.084;2024-03-17T05:24:32;6.60;99.90
21682;DHT22;11002;48.256;10.084;2024-03-17T05:26:59;6.60;99.90
21682;DHT22;11002;48.256;10.084;2024-03-17T05:29:26;6.60;99.90
21682;DHT22;11002;48.256;10.084;2024-03-17T05:31:53;6.60;99.90
21682;DHT22;11002;48.256;10.084;2024-03-17T05:34:22;6.60;99.90
21682;DHT22;11002;48.256;10.084;2024-03-17T05:36:50;6.60;99.90
21682;DHT22;11002;48.256;10.084;2024-03-17T05:39:17;6.60;99.90
21682;DHT22;11002;48.256;10.084;2024-03-17T05:41:46;6.60;99.90
21682;DHT22;11002;48.256;10.084;2024-03-17T05:44:14;6.60;99.90
21682;DHT22;11002;48.256;10.084;2024-03-17T05:46:41;6.60;99.90
21682;DHT22;11002;48.256;10.084;2024-03-17T05:49:09;6.60;99.90
21682;DHT22;11002;48.256;10.084;2024-03-17T05:51:37;6.70;99.90
21682;DHT22;11002;48.256;10.084;2024-03-17T05:54:06;6.70;99.90
21682;DHT22;11002;48.256;10.084;2024-03-17T05:56:33;6.70;99.90
21682;DHT22;11002;48.256;10.084;2024-03-17T05:59:01;6.70;99.90
21682;DHT22;11002;48.256;10.084;2024-03-17T06:01:28;6.80;99.90
21682;DHT22;11002;48.256;10.084;2024-03-17T06:03:55;6.80;99.90
21682;DHT22;11002;48.256;10.084;2024-03-17T06:06:23;6.80;99.90
21682;DHT22;11002;48.256;10.084;2024-03-17T06:08:51;6.80;99.90
21682;DHT22;11002;48.256;10.084;2024-03-17T06:11:18;6.90;99.90
21682;DHT22;11002;48.256;10.084;2024-03-17T06:13:45;6.90;99.90
21682;DHT22;11002;48.256;10.084;2024-03-17T06:16:12;6.90;99.90
21682;DHT22;11002;48.256;10.084;2024-03-17T06:18:39;6.90;99.90
21682;DHT22;11002;48.256;10.084;2024-03-17T06:21:06;7.00;99.90
21682;DHT22;11002;48.256;10.084;2024-03-17T06:23:35;7.00;99.90
21682;DHT22;11002;48.256;10.084;2024-03-17T06:26:04;7.00;99.90
21682;DHT22;11002;48.256;10.084;2024-03-17T06:28:31;7.10;99.90
21682;DHT22;11002;48.256;10.084;2024-03-17T06:30:59;7.20;99.90
21682;DHT22;11002;48.256;10.084;2024-03-17T06:33:28;7.20;99.90
21682;DHT22;11002;48.256;10.084;2024-03-17T06:35:57;7.30;99.90
21682;DHT22;11002;48.256;10.084;2024-03-17T06:38:25;7.40;99.60
21682;DHT22;11002;48.256;10.084;2024-03-17T06:40:52;7.40;98.20
21682;DHT22;11002;48.256;10.084;2024-03-17T06:43:21;7.40;97.50
21682;DHT22;11002;48.256;10.084;2024-03-17T06:45:55;7.50;96.90
21682;DHT22;11002;48.256;10.084;2024-03-17T06:48:22;7.60;96.80
21682;DHT22;11002;48.256;10.084;2024-03-17T06:50:51;7.60;96.50
21682;DHT22;11002;48.256;10.084;2024-03-17T06:53:20;7.70;95.60
21682;DHT22;11002;48.256;10.084;2024-03-17T06:55:54;7.70;94.10
21682;DHT22;11002;48.256;10.084;2024-03-17T06:58:23;7.80;94.20
21682;DHT22;11002;48.256;10.084;2024-03-17T07:00:56;7.90;93.80
21682;DHT22;11002;48.256;10.084;2024-03-17T07:03:25;8.00;93.70
21682;DHT22;11002;48.256;10.084;2024-03-17T07:05:53;8.10;93.00
21682;DHT22;11002;48.256;10.084;2024-03-17T07:08:21;8.10;92.50
21682;DHT22;11002;48.256;10.084;2024-03-17T07:10:59;8.20;91.60
21682;DHT22;11002;48.256;10.084;2024-03-17T07:13:30;8.30;91.30
21682;DHT22;11002;48.256;10.084;2024-03-17T07:15:57;8.40;90.70
21682;DHT22;11002;48.256;10.084;2024-03-17T07:18:26;8.50;90.30
21682;DHT22;11002;48.256;10.084;2024-03-17T07:20:56;8.70;88.20
21682;DHT22;11002;48.256;10.084;2024-03-17T07:23:23;8.80;84.70
21682;DHT22;11002;48.256;10.084;2024-03-17T07:25:54;8.90;80.20
21682;DHT22;11002;48.256;10.084;2024-03-17T07:28:22;8.90;77.60
21682;DHT22;11002;48.256;10.084;2024-03-17T07:30:52;9.10;76.50
21682;DHT22;11002;48.256;10.084;2024-03-17T07:33:20;9.20;73.10
21682;DHT22;11002;48.256;10.084;2024-03-17T07:35:48;9.20;72.00
21682;DHT22;11002;48.256;10.084;2024-03-17T07:38:16;9.30;69.50
21682;DHT22;11002;48.256;10.084;2024-03-17T07:40:43;9.20;69.30
21682;DHT22;11002;48.256;10.084;2024-03-17T07:43:11;9.30;69.70
21682;DHT22;11002;48.256;10.084;2024-03-17T07:45:38;9.40;68.40
21682;DHT22;11002;48.256;10.084;2024-03-17T07:48:07;9.60;68.10
21682;DHT22;11002;48.256;10.084;2024-03-17T07:50:34;9.70;66.80
21682;DHT22;11002;48.256;10.084;2024-03-17T07:53:01;9.90;66.00
21682;DHT22;11002;48.256;10.084;2024-03-17T07:55:29;10.10;65.10
21682;DHT22;11002;48.256;10.084;2024-03-17T07:57:57;10.30;63.50
21682;DHT22;11002;48.256;10.084;2024-03-17T08:00:24;10.50;62.90
21682;DHT22;11002;48.256;10.084;2024-03-17T08:02:52;10.60;61.60
21682;DHT22;11002;48.256;10.084;2024-03-17T08:05:21;10.80;60.90
21682;DHT22;11002;48.256;10.084;2024-03-17T08:07:48;10.80;58.40
21682;DHT22;11002;48.256;10.084;2024-03-17T08:10:15;10.80;59.00
21682;DHT22;11002;48.256;10.084;2024-03-17T08:12:43;10.90;56.80
21682;DHT22;11002;48.256;10.084;2024-03-17T08:15:11;11.00;56.60
21682;DHT22;11002;48.256;10.084;2024-03-17T08:17:39;11.20;54.50
21682;DHT22;11002;48.256;10.084;2024-03-17T08:20:07;11.20;53.50
21682;DHT22;11002;48.256;10.084;2024-03-17T08:22:36;11.20;53.30
21682;DHT22;11002;48.256;10.084;2024-03-17T08:25:06;11.40;53.80
21682;DHT22;11002;48.256;10.084;2024-03-17T08:27:35;11.60;53.60
21682;DHT22;11002;48.256;10.084;2024-03-17T08:30:02;11.90;53.90
21682;DHT22;11002;48.256;10.084;2024-03-17T08:32:30;12.20;51.70
21682;DHT22;11002;48.256;10.084;2024-03-17T08:34:57;12.40;51.40
21682;DHT22;11002;48.256;10.084;2024-03-17T08:37:24;12.40;50.00
21682;DHT22;11002;48.256;10.084;2024-03-17T08:39:53;12.50;49.70
21682;DHT22;11002;48.256;10.084;2024-03-17T08:42:20;12.50;48.70
21682;DHT22;11002;48.256;10.084;2024-03-17T08:44:47;12.60;48.20
21682;DHT22;11002;48.256;10.084;2024-03-17T08:47:14;12.70;48.30
21682;DHT22;11002;48.256;10.084;2024-03-17T08:49:41;13.10;48.10
21682;DHT22;11002;48.256;10.084;2024-03-17T08:52:08;13.70;46.90
21682;DHT22;11002;48.256;10.084;2024-03-17T08:54:36;14.90;43.80
21682;DHT22;11002;48.256;10.084;2024-03-17T08:57:05;16.00;39.70
21682;DHT22;11002;48.256;10.084;2024-03-17T08:59:32;17.00;37.00
21682;DHT22;11002;48.256;10.084;2024-03-17T09:01:59;17.50;34.00
21682;DHT22;11002;48.256;10.084;2024-03-17T09:04:26;18.40;33.70
21682;DHT22;11002;48.256;10.084;2024-03-17T09:06:54;18.90;29.80
21682;DHT22;11002;48.256;10.084;2024-03-17T09:09:22;19.00;28.20
21682;DHT22;11002;48.256;10.084;2024-03-17T09:11:49;18.80;29.20
21682;DHT22;11002;48.256;10.084;2024-03-17T09:14:19;19.00;28.40
21682;DHT22;11002;48.256;10.084;2024-03-17T09:16:47;19.70;27.40
21682;DHT22;11002;48.256;10.084;2024-03-17T09:19:14;20.40;26.10
21682;DHT22;11002;48.256;10.084;2024-03-17T09:21:42;20.60;23.80
21682;DHT22;11002;48.256;10.084;2024-03-17T09:24:10;20.00;23.80
21682;DHT22;11002;48.256;10.084;2024-03-17T09:26:38;19.70;26.00
21682;DHT22;11002;48.256;10.084;2024-03-17T09:29:06;19.60;26.00
21682;DHT22;11002;48.256;10.084;2024-03-17T09:31:34;19.30;26.90
21682;DHT22;11002;48.256;10.084;2024-03-17T09:34:02;18.90;26.40
21682;DHT22;11002;48.256;10.084;2024-03-17T09:36:30;18.30;27.00
21682;DHT22;11002;48.256;10.084;2024-03-17T09:38:57;17.90;27.30
21682;DHT22;11002;48.256;10.084;2024-03-17T09:41:26;17.60;28.00
21682;DHT22;11002;48.256;10.084;2024-03-17T09:43:55;17.60;28.80
21682;DHT22;11002;48.256;10.084;2024-03-17T09:46:23;17.70;28.50
21682;DHT22;11002;48.256;10.084;2024-03-17T09:48:53;17.60;29.40
21682;DHT22;11002;48.256;10.084;2024-03-17T09:51:22;17.10;29.70
21682;DHT22;11002;48.256;10.084;2024-03-17T09:53:50;16.50;32.00
21682;DHT22;11002;48.256;10.084;2024-03-17T09:56:18;16.20;31.70
21682;DHT22;11002;48.256;10.084;2024-03-17T09:58:46;16.50;32.00
21682;DHT22;11002;48.256;10.084;2024-03-17T10:01:14;17.00;32.50
21682;DHT22;11002;48.256;10.084;2024-03-17T10:03:43;17.20;32.60
21682;DHT22;11002;48.256;10.084;2024-03-17T10:06:13;17.30;31.30
21682;DHT22;11002;48.256;10.084;2024-03-17T10:08:42;17.20;30.50
21682;DHT22;11002;48.256;10.084;2024-03-17T10:11:11;17.30;29.60
21682;DHT22;11002;48.256;10.084;2024-03-17T10:13:38;16.90;30.20
21682;DHT22;11002;48.256;10.084;2024-03-17T10:16:06;16.80;32.10
21682;DHT22;11002;48.256;10.084;2024-03-17T10:18:33;16.70;32.20
21682;DHT22;11002;48.256;10.084;2024-03-17T10:21:00;16.50;32.70
21682;DHT22;11002;48.256;10.084;2024-03-17T10:23:29;16.40;31.90
21682;DHT22;11002;48.256;10.084;2024-03-17T10:25:56;16.50;32.00
21682;DHT22;11002;48.256;10.084;2024-03-17T10:28:23;16.60;32.10
21682;DHT22;11002;48.256;10.084;2024-03-17T10:30:58;16.90;32.40
21682;DHT22;11002;48.256;10.084;2024-03-17T10:33:26;17.00;30.30
21682;DHT22;11002;48.256;10.084;2024-03-17T10:35:59;16.80;30.50
21682;DHT22;11002;48.256;10.084;2024-03-17T10:38:28;16.60;32.10
21682;DHT22;11002;48.256;10.084;2024-03-17T10:40:56;16.40;31.90
21682;DHT22;11002;48.256;10.084;2024-03-17T10:43:24;16.40;31.90
21682;DHT22;11002;48.256;10.084;2024-03-17T10:45:52;16.40;31.90
21682;DHT22;11002;48.256;10.084;2024-03-17T10:48:24;16.30;31.80
21682;DHT22;11002;48.256;10.084;2024-03-17T10:50:55;16.30;33.80
21682;DHT22;11002;48.256;10.084;2024-03-17T10:53:25;16.30;34.50
21682;DHT22;11002;48.256;10.084;2024-03-17T10:56:03;16.40;33.70
21682;DHT22;11002;48.256;10.084;2024-03-17T10:58:34;16.20;34.10
21682;DHT22;11002;48.256;10.084;2024-03-17T11:01:03;16.00;33.50
21682;DHT22;11002;48.256;10.084;2024-03-17T11:03:34;16.20;34.20
21682;DHT22;11002;48.256;10.084;2024-03-17T11:06:04;16.50;32.60
21682;DHT22;11002;48.256;10.084;2024-03-17T11:08:32;16.40;33.80
21682;DHT22;11002;48.256;10.084;2024-03-17T11:11:01;16.40;33.90
21682;DHT22;11002;48.256;10.084;2024-03-17T11:13:31;16.60;32.20
21682;DHT22;11002;48.256;10.084;2024-03-17T11:15:59;16.60;31.30
21682;DHT22;11002;48.256;10.084;2024-03-17T11:18:37;17.00;32.50
21682;DHT22;11002;48.256;10.084;2024-03-17T11:21:18;17.60;30.80
21682;DHT22;11002;48.256;10.084;2024-03-17T11:23:55;17.90;30.00
21682;DHT22;11002;48.256;10.084;2024-03-17T11:26:30;18.30;29.80
21682;DHT22;11002;48.256;10.084;2024-03-17T11:28:58;18.30;29.20
21682;DHT22;11002;48.256;10.084;2024-03-17T11:31:38;18.30;28.90
21682;DHT22;11002;48.256;10.084;2024-03-17T11:36:51;18.10;27.90
21682;DHT22;11002;48.256;10.084;2024-03-17T11:39:17;19.10;25.40
21682;DHT22;11002;48.256;10.084;2024-03-17T11:41:49;19.90;23.30
21682;DHT22;11002;48.256;10.084;2024-03-17T11:44:23;20.40;23.70
21682;DHT22;11002;48.256;10.084;2024-03-17T11:46:53;20.50;22.20
21682;DHT22;11002;48.256;10.084;2024-03-17T11:49:20;20.70;21.90
21682;DHT22;11002;48.256;10.084;2024-03-17T11:51:48;20.70;21.40
21682;DHT22;11002;48.256;10.084;2024-03-17T11:54:16;20.70;20.40
21682;DHT22;11002;48.256;10.084;2024-03-17T11:56:50;20.40;20.60
21682;DHT22;11002;48.256;10.084;2024-03-17T11:59:17;20.20;21.30
21682;DHT22;11002;48.256;10.084;2024-03-17T12:01:45;20.20;21.40
21682;DHT22;11002;48.256;10.084;2024-03-17T12:04:13;20.10;21.40
21682;DHT22;11002;48.256;10.084;2024-03-17T12:06:44;19.70;22.80
21682;DHT22;11002;48.256;10.084;2024-03-17T12:09:18;19.20;22.90
21682;DHT22;11002;48.256;10.084;2024-03-17T12:11:48;18.80;24.00
21682;DHT22;11002;48.256;10.084;2024-03-17T12:14:17;18.50;24.00
21682;DHT22;11002;48.256;10.084;2024-03-17T12:16:52;18.40;24.50
21682;DHT22;11002;48.256;10.084;2024-03-17T12:19:20;18.30;24.70
21682;DHT22;11002;48.256;10.084;2024-03-17T12:21:49;18.00;25.50
21682;DHT22;11002;48.256;10.084;2024-03-17T12:24:18;17.80;27.10
21682;DHT22;11002;48.256;10.084;2024-03-17T12:26:45;17.80;26.30
21682;DHT22;11002;48.256;10.084;2024-03-17T12:29:25;17.90;25.80
21682;DHT22;11002;48.256;10.084;2024-03-17T12:31:54;17.70;27.30
21682;DHT22;11002;48.256;10.084;2024-03-17T12:34:24;17.70;28.20
21682;DHT22;11002;48.256;10.084;2024-03-17T12:36:53;17.90;28.00
21682;DHT22;11002;48.256;10.084;2024-03-17T12:39:21;18.60;26.40
21682;DHT22;11002;48.256;10.084;2024-03-17T12:42:05;19.20;25.60
21682;DHT22;11002;48.256;10.084;2024-03-17T12:44:36;19.40;23.00
21682;DHT22;11002;48.256;10.084;2024-03-17T12:47:04;20.10;23.50
21682;DHT22;11002;48.256;10.084;2024-03-17T12:49:33;20.50;22.40
21682;DHT22;11002;48.256;10.084;2024-03-17T12:52:00;20.80;21.70
21682;DHT22;11002;48.256;10.084;2024-03-17T12:54:28;20.80;21.50
21682;DHT22;11002;48.256;10.084;2024-03-17T12:57:06;20.70;21.70
21682;DHT22;11002;48.256;10.084;2024-03-17T12:59:52;20.30;23.00
21682;DHT22;11002;48.256;10.084;2024-03-17T13:02:41;19.80;23.30
21682;DHT22;11002;48.256;10.084;2024-03-17T13:05:16;19.60;23.10
21682;DHT22;11002;48.256;10.084;2024-03-17T13:07:44;19.90;21.50
21682;DHT22;11002;48.256;10.084;2024-03-17T13:10:13;20.10;20.70
21682;DHT22;11002;48.256;10.084;2024-03-17T13:12:42;19.90;20.50
21682;DHT22;11002;48.256;10.084;2024-03-17T13:15:14;19.80;20.40
21682;DHT22;11002;48.256;10.084;2024-03-17T13:17:42;19.40;22.50
21682;DHT22;11002;48.256;10.084;2024-03-17T13:20:12;18.70;22.50
21682;DHT22;11002;48.256;10.084;2024-03-17T13:22:41;18.40;23.30
21682;DHT22;11002;48.256;10.084;2024-03-17T13:25:14;18.10;22.10
21682;DHT22;11002;48.256;10.084;2024-03-17T13:27:42;17.50;23.80
21682;DHT22;11002;48.256;10.084;2024-03-17T13:30:13;16.70;25.50
21682;DHT22;11002;48.256;10.084;2024-03-17T13:32:40;16.20;26.20
21682;DHT22;11002;48.256;10.084;2024-03-17T13:35:15;15.90;28.50
21682;DHT22;11002;48.256;10.084;2024-03-17T13:37:45;15.80;28.80
21682;DHT22;11002;48.256;10.084;2024-03-17T13:40:13;15.80;28.10
21682;DHT22;11002;48.256;10.084;2024-03-17T13:42:42;15.70;27.80
21682;DHT22;11002;48.256;10.084;2024-03-17T13:45:12;15.50;29.00
21682;DHT22;11002;48.256;10.084;2024-03-17T13:47:41;15.50;28.20
21682;DHT22;11002;48.256;10.084;2024-03-17T13:50:09;15.30;29.40
21682;DHT22;11002;48.256;10.084;2024-03-17T13:52:38;15.30;29.40
21682;DHT22;11002;48.256;10.084;2024-03-17T13:55:06;15.30;30.00
21682;DHT22;11002;48.256;10.084;2024-03-17T13:57:39;15.30;29.30
21682;DHT22;11002;48.256;10.084;2024-03-17T14:00:07;15.20;29.10
21682;DHT22;11002;48.256;10.084;2024-03-17T14:02:40;15.20;29.50
21682;DHT22;11002;48.256;10.084;2024-03-17T14:05:08;15.00;29.30
21682;DHT22;11002;48.256;10.084;2024-03-17T14:07:37;14.90;30.30
21682;DHT22;11002;48.256;10.084;2024-03-17T14:10:06;14.90;29.80
21682;DHT22;11002;48.256;10.084;2024-03-17T14:12:34;14.90;29.60
21682;DHT22;11002;48.256;10.084;2024-03-17T14:15:02;14.80;30.50
21682;DHT22;11002;48.256;10.084;2024-03-17T14:17:31;14.80;29.50
21682;DHT22;11002;48.256;10.084;2024-03-17T14:19:59;14.80;30.50
21682;DHT22;11002;48.256;10.084;2024-03-17T14:22:27;14.90;31.20
21682;DHT22;11002;48.256;10.084;2024-03-17T14:24:54;14.90;29.90
21682;DHT22;11002;48.256;10.084;2024-03-17T14:27:21;14.90;30.60
21682;DHT22;11002;48.256;10.084;2024-03-17T14:29:49;15.00;30.40
21682;DHT22;11002;48.256;10.084;2024-03-17T14:32:17;15.00;29.50
21682;DHT22;11002;48.256;10.084;2024-03-17T14:34:44;15.10;28.40
21682;DHT22;11002;48.256;10.084;2024-03-17T14:37:14;15.10;30.80
21682;DHT22;11002;48.256;10.084;2024-03-17T14:39:42;15.00;29.30
21682;DHT22;11002;48.256;10.084;2024-03-17T14:42:10;15.10;28.70
21682;DHT22;11002;48.256;10.084;2024-03-17T14:44:37;15.10;29.00
21682;DHT22;11002;48.256;10.084;2024-03-17T14:47:05;15.00;28.80
21682;DHT22;11002;48.256;10.084;2024-03-17T14:49:41;14.90;29.70
21682;DHT22;11002;48.256;10.084;2024-03-17T14:52:09;14.90;30.60
21682;DHT22;11002;48.256;10.084;2024-03-17T14:54:51;14.90;30.60
21682;DHT22;11002;48.256;10.084;2024-03-17T14:57:41;14.90;30.60
21682;DHT22;11002;48.256;10.084;2024-03-17T15:00:11;15.00;30.30
21682;DHT22;11002;48.256;10.084;2024-03-17T15:02:44;15.10;28.90
21682;DHT22;11002;48.256;10.084;2024-03-17T15:05:13;15.20;29.00
21682;DHT22;11002;48.256;10.084;2024-03-17T15:07:45;15.10;28.50
21682;DHT22;11002;48.256;10.084;2024-03-17T15:10:14;15.10;28.50
21682;DHT22;11002;48.256;10.084;2024-03-17T15:12:43;15.10;29.30
21682;DHT22;11002;48.256;10.084;2024-03-17T15:15:10;15.10;29.30
21682;DHT22;11002;48.256;10.084;2024-03-17T15:17:38;15.10;29.50
21682;DHT22;11002;48.256;10.084;2024-03-17T15:20:07;15.10;30.40
21682;DHT22;11002;48.256;10.084;2024-03-17T15:22:42;15.10;30.80
21682;DHT22;11002;48.256;10.084;2024-03-17T15:25:09;15.20;30.00
21682;DHT22;11002;48.256;10.084;2024-03-17T15:27:40;15.20;30.90
21682;DHT22;11002;48.256;10.084;2024-03-17T15:30:10;15.20;30.90
21682;DHT22;11002;48.256;10.084;2024-03-17T15:32:40;15.30;29.50
21682;DHT22;11002;48.256;10.084;2024-03-17T15:35:10;15.40;30.00